Time;durP1;ratioP1;P1;durP2;ratioP2;P2;SDS_P1;SDS_P2;PMS_P1;PMS_P2;Temp;Humidity;BMP_temperature;BMP_pressure;BME280_temperature;BME280_humidity;BME280_pressure;Samples;Min_cycle;Max_cycle;Signal;HPM_P1;HPM_P2
2024/01/26 00:01:45;;;;;;;3.30;1.30;;;;;;;2.04;78.48;95701.52;110722;1273;22181;-79
2024/01/26 00:04:13;;;;;;;9.20;2.10;;;;;;;2.07;77.52;95698.11;110741;1273;22882;-79
2024/01/26 00:06:43;;;;;;;3.30;1.50;;;;;;;2.11;77.31;95701.13;110627;1273;22155;-77
2024/01/26 00:09:12;;;;;;;3.80;1.50;;;;;;;2.13;77.29;95696.12;110618;1273;22213;-79
2024/01/26 00:11:41;;;;;;;6.50;1.80;;;;;;;2.16;76.82;95695.64;110744;1273;23147;-79
2024/01/26 00:14:10;;;;;;;3.00;1.40;;;;;;;2.17;76.54;95696.17;110627;1273;22886;-79
2024/01/26 00:16:39;;;;;;;3.90;1.60;;;;;;;2.23;75.41;95700.58;110734;1273;23059;-78
2024/01/26 00:19:08;;;;;;;6.20;2.50;;;;;;;2.30;74.95;95696.71;110706;1273;22109;-79
2024/01/26 00:21:36;;;;;;;6.70;2.00;;;;;;;2.32;74.99;95701.95;110737;1273;22154;-80
2024/01/26 00:24:05;;;;;;;2.70;1.30;;;;;;;2.35;74.90;95714.69;110615;1273;22146;-79
2024/01/26 00:26:33;;;;;;;3.90;1.30;;;;;;;2.39;74.66;95718.38;110636;1273;22258;-79
2024/01/26 00:29:02;;;;;;;4.10;1.50;;;;;;;2.41;74.65;95723.95;110610;1273;22106;-79
2024/01/26 00:31:30;;;;;;;5.10;1.10;;;;;;;2.40;74.92;95726.19;110709;1273;22128;-80
2024/01/26 00:33:58;;;;;;;5.40;1.90;;;;;;;2.37;74.71;95727.89;110724;1273;22116;-80
2024/01/26 00:36:26;;;;;;;2.90;1.20;;;;;;;2.40;74.54;95720.29;110721;1273;22875;-79
2024/01/26 00:38:55;;;;;;;2.80;1.20;;;;;;;2.41;74.60;95722.21;110734;1273;22118;-80
2024/01/26 00:41:23;;;;;;;3.20;1.40;;;;;;;2.41;74.35;95719.44;110652;1273;22106;-79
2024/01/26 00:43:51;;;;;;;3.90;1.50;;;;;;;2.40;74.20;95720.48;110738;1273;22826;-80
2024/01/26 00:46:20;;;;;;;2.90;1.30;;;;;;;2.42;74.28;95718.40;110738;1270;22328;-79
2024/01/26 00:48:49;;;;;;;8.30;2.10;;;;;;;2.43;74.23;95721.20;110609;1273;22847;-79
2024/01/26 00:51:17;;;;;;;4.40;1.40;;;;;;;2.43;74.22;95724.86;110749;1273;22176;-79
2024/01/26 00:53:46;;;;;;;3.80;1.30;;;;;;;2.45;73.75;95722.79;110750;1273;22204;-79
2024/01/26 00:56:14;;;;;;;7.20;1.50;;;;;;;2.48;73.85;95720.77;110724;1273;22343;-79
2024/01/26 00:58:42;;;;;;;3.80;1.10;;;;;;;2.49;73.92;95721.11;110576;1273;22325;-79
2024/01/26 01:01:10;;;;;;;3.00;1.00;;;;;;;2.50;73.82;95715.41;110740;1273;22122;-79
2024/01/26 01:03:39;;;;;;;5.00;1.50;;;;;;;2.52;73.73;95721.34;110719;1273;22187;-80
2024/01/26 01:06:07;;;;;;;3.60;1.20;;;;;;;2.53;73.66;95722.57;110725;1273;22301;-80
2024/01/26 01:08:35;;;;;;;3.10;1.20;;;;;;;2.52;73.59;95722.90;110722;1273;22343;-79
2024/01/26 01:11:04;;;;;;;4.10;1.40;;;;;;;2.51;73.73;95727.91;110725;1273;22124;-80
2024/01/26 01:13:34;;;;;;;6.20;1.20;;;;;;;2.50;73.84;95730.70;110758;1273;22855;-80
2024/01/26 01:16:02;;;;;;;3.80;1.30;;;;;;;2.48;73.72;95733.60;110605;1273;22124;-79
2024/01/26 01:18:30;;;;;;;3.30;1.30;;;;;;;2.48;73.66;95732.05;110746;1273;22809;-80
2024/01/26 01:20:59;;;;;;;4.10;1.30;;;;;;;2.46;73.79;95741.56;110739;1273;22825;-80
2024/01/26 01:23:27;;;;;;;4.40;1.50;;;;;;;2.45;73.80;95746.77;110733;1273;23298;-80
2024/01/26 01:25:56;;;;;;;4.10;1.60;;;;;;;2.41;73.97;95747.05;110738;1273;22285;-79
2024/01/26 01:28:24;;;;;;;1.50;1.00;;;;;;;2.38;74.07;95741.27;110723;1273;22117;-79
2024/01/26 01:30:52;;;;;;;4.20;1.20;;;;;;;2.39;74.21;95737.64;110720;1273;22375;-79
2024/01/26 01:33:21;;;;;;;2.90;1.30;;;;;;;2.34;74.29;95737.75;110728;1269;22101;-79
2024/01/26 01:35:49;;;;;;;3.50;1.20;;;;;;;2.34;74.35;95735.13;110744;1273;22312;-79
2024/01/26 01:38:18;;;;;;;1.60;0.80;;;;;;;2.32;74.30;95740.83;110727;1273;22874;-80
2024/01/26 01:40:46;;;;;;;4.50;1.40;;;;;;;2.31;74.26;95739.27;110733;1273;22145;-79
2024/01/26 01:43:17;;;;;;;3.30;1.50;;;;;;;2.31;74.53;95738.90;110728;1273;22109;-80
2024/01/26 01:45:45;;;;;;;4.30;1.70;;;;;;;2.30;75.00;95742.35;110756;1273;22992;-80
2024/01/26 01:48:13;;;;;;;4.80;1.30;;;;;;;2.27;75.09;95747.17;110636;1260;22120;-80
2024/01/26 01:50:42;;;;;;;3.80;1.70;;;;;;;2.27;75.12;95741.10;110722;1273;22119;-79
2024/01/26 01:53:12;;;;;;;5.80;1.60;;;;;;;2.24;75.48;95739.83;110740;1273;22321;-80
2024/01/26 01:55:44;;;;;;;6.10;2.10;;;;;;;2.21;75.17;95738.57;110725;1273;22119;-79
2024/01/26 01:58:13;;;;;;;2.70;1.30;;;;;;;2.20;75.08;95735.27;110716;1273;22107;-80
2024/01/26 02:00:41;;;;;;;9.80;1.80;;;;;;;2.19;74.90;95733.52;110747;1273;22181;-80
2024/01/26 02:03:10;;;;;;;5.90;1.90;;;;;;;2.19;74.67;95737.33;110730;1273;22455;-79
2024/01/26 02:05:38;;;;;;;4.70;1.60;;;;;;;2.21;74.33;95734.58;110589;1263;22777;-79
2024/01/26 02:08:06;;;;;;;6.60;1.90;;;;;;;2.23;73.96;95736.16;110722;1273;23005;-79
2024/01/26 02:10:35;;;;;;;4.30;1.20;;;;;;;2.25;73.77;95729.63;110730;1273;22191;-79
2024/01/26 02:13:03;;;;;;;7.60;2.00;;;;;;;2.25;73.68;95725.45;110628;1273;22127;-79
2024/01/26 02:15:32;;;;;;;3.40;1.40;;;;;;;2.23;73.94;95730.10;110718;1273;22301;-79
2024/01/26 02:18:00;;;;;;;5.90;1.60;;;;;;;2.23;73.64;95728.02;110722;1273;22108;-79
2024/01/26 02:20:28;;;;;;;5.90;1.50;;;;;;;2.23;73.52;95732.70;110626;1273;22118;-79
2024/01/26 02:23:24;;;;;;;8.90;2.00;;;;;;;2.22;73.57;95741.70;110731;1273;22154;-79
2024/01/26 02:25:52;;;;;;;4.80;1.30;;;;;;;2.21;73.74;95744.65;110746;1273;22273;-80
2024/01/26 02:28:20;;;;;;;6.20;2.10;;;;;;;2.20;73.61;95751.91;110610;1273;22164;-79
2024/01/26 02:30:49;;;;;;;5.80;1.80;;;;;;;2.20;73.75;95752.62;110729;1273;22088;-80
2024/01/26 02:33:17;;;;;;;4.80;1.70;;;;;;;2.19;73.57;95757.47;110741;1273;22262;-80
2024/01/26 02:35:46;;;;;;;3.80;1.50;;;;;;;2.20;73.58;95764.59;110755;1273;22337;-80
2024/01/26 02:38:14;;;;;;;6.10;1.70;;;;;;;2.20;73.43;95760.77;110741;1273;22152;-79
2024/01/26 02:40:42;;;;;;;5.60;1.70;;;;;;;2.19;73.52;95767.17;110745;1273;22096;-80
2024/01/26 02:43:10;;;;;;;1.80;1.00;;;;;;;2.18;73.55;95768.38;110609;1272;22272;-79
2024/01/26 02:45:39;;;;;;;5.00;1.70;;;;;;;2.20;72.98;95774.14;110727;1273;22276;-80
2024/01/26 02:48:07;;;;;;;6.20;1.70;;;;;;;2.23;73.05;95778.35;110712;1273;22147;-79
2024/01/26 02:50:35;;;;;;;3.80;1.30;;;;;;;2.24;72.88;95772.11;110723;1273;22080;-79
2024/01/26 02:53:03;;;;;;;4.20;1.40;;;;;;;2.25;73.14;95768.66;110637;1273;22210;-79
2024/01/26 02:55:31;;;;;;;6.30;1.70;;;;;;;2.25;73.09;95774.02;110758;1273;22760;-79
2024/01/26 02:58:00;;;;;;;4.80;2.10;;;;;;;2.26;73.39;95772.16;110610;1273;22137;-80
2024/01/26 03:00:28;;;;;;;5.30;1.50;;;;;;;2.27;73.25;95767.13;110717;1273;22274;-79
2024/01/26 03:02:56;;;;;;;4.60;1.60;;;;;;;2.21;73.11;95764.78;110743;1273;22964;-79
2024/01/26 03:05:25;;;;;;;4.90;2.20;;;;;;;2.18;73.17;95768.20;110706;1273;22117;-79
2024/01/26 03:07:53;;;;;;;4.00;1.50;;;;;;;2.15;73.34;95772.67;110736;1273;22191;-78
2024/01/26 03:10:21;;;;;;;7.50;1.80;;;;;;;2.10;73.75;95776.05;110714;1273;22181;-79
2024/01/26 03:12:49;;;;;;;5.00;2.00;;;;;;;2.05;73.60;95777.88;110732;1273;22264;-79
2024/01/26 03:15:17;;;;;;;3.40;1.50;;;;;;;2.04;73.55;95777.52;110630;1273;22329;-79
2024/01/26 03:17:46;;;;;;;2.60;1.20;;;;;;;2.04;73.36;95778.38;110724;1273;22151;-79
2024/01/26 03:20:14;;;;;;;5.50;1.50;;;;;;;2.03;73.32;95782.88;110612;1273;22201;-79
2024/01/26 03:22:45;;;;;;;6.80;1.60;;;;;;;2.04;73.51;95781.16;110713;1273;22135;-79
2024/01/26 03:25:13;;;;;;;5.50;2.10;;;;;;;2.04;73.70;95781.33;110718;1273;22209;-80
2024/01/26 03:27:42;;;;;;;6.40;2.10;;;;;;;2.03;74.03;95788.95;110710;1273;22286;-80
2024/01/26 03:30:10;;;;;;;4.70;1.60;;;;;;;2.04;73.80;95789.30;110706;1273;22813;-80
2024/01/26 03:32:38;;;;;;;4.60;1.90;;;;;;;2.03;73.40;95792.77;110691;1273;22286;-79
2024/01/26 03:35:07;;;;;;;4.30;1.80;;;;;;;2.11;72.49;95789.96;110736;1273;22731;-79
2024/01/26 03:37:38;;;;;;;3.70;1.40;;;;;;;2.18;72.44;95789.90;110701;1273;22977;-79
2024/01/26 03:40:07;;;;;;;3.20;2.10;;;;;;;2.22;72.44;95793.44;110604;1273;22166;-79
2024/01/26 03:42:37;;;;;;;4.20;1.50;;;;;;;2.21;72.46;95798.10;110740;1259;22129;-79
2024/01/26 03:45:06;;;;;;;4.70;1.70;;;;;;;2.22;72.01;95802.64;110624;1273;22110;-79
2024/01/26 03:47:34;;;;;;;5.40;1.70;;;;;;;2.24;72.10;95812.38;110732;1273;22094;-79
2024/01/26 03:50:04;;;;;;;5.40;1.80;;;;;;;2.24;72.08;95812.73;110626;1273;22112;-79
2024/01/26 03:52:33;;;;;;;3.30;1.70;;;;;;;2.22;71.92;95822.59;110742;1273;22223;-79
2024/01/26 03:55:02;;;;;;;3.60;1.70;;;;;;;2.19;71.96;95828.44;110709;1273;22485;-79
2024/01/26 03:57:30;;;;;;;3.50;1.40;;;;;;;2.15;72.10;95828.73;110632;1273;22173;-79
2024/01/26 03:59:58;;;;;;;4.90;1.50;;;;;;;2.14;71.88;95833.41;110720;1273;22144;-79
2024/01/26 04:02:26;;;;;;;4.80;1.80;;;;;;;2.12;72.14;95835.10;110747;1266;22312;-79
2024/01/26 04:04:54;;;;;;;2.50;1.50;;;;;;;2.11;72.25;95839.77;110631;1273;22668;-80
2024/01/26 04:07:23;;;;;;;7.90;2.40;;;;;;;2.09;72.07;95846.33;110734;1273;22143;-79
2024/01/26 04:09:51;;;;;;;4.30;1.40;;;;;;;2.10;72.39;95849.46;110711;1273;22111;-79
2024/01/26 04:12:20;;;;;;;3.30;1.70;;;;;;;2.07;72.32;95849.42;110700;1273;22142;-81
2024/01/26 04:14:48;;;;;;;5.10;1.50;;;;;;;2.08;72.60;95853.27;110719;1273;22101;-79
2024/01/26 04:17:16;;;;;;;6.50;1.70;;;;;;;2.05;72.71;95855.44;110714;1273;22249;-79
2024/01/26 04:19:45;;;;;;;9.40;3.50;;;;;;;2.08;72.79;95863.98;110723;1273;23139;-80
2024/01/26 04:22:13;;;;;;;5.10;1.50;;;;;;;2.08;72.80;95865.38;110724;1273;22169;-79
2024/01/26 04:24:41;;;;;;;7.30;2.30;;;;;;;2.06;72.77;95867.77;110715;1269;22128;-79
2024/01/26 04:27:09;;;;;;;9.90;3.80;;;;;;;2.04;72.93;95872.27;110711;1273;22629;-79
2024/01/26 04:29:37;;;;;;;6.30;4.10;;;;;;;2.03;73.15;95876.22;110610;1273;22156;-79
2024/01/26 04:32:06;;;;;;;6.40;2.50;;;;;;;2.04;73.13;95881.11;110708;1273;22877;-79
2024/01/26 04:34:37;;;;;;;9.20;4.60;;;;;;;2.03;73.27;95882.64;110716;1273;22370;-79
2024/01/26 04:37:07;;;;;;;7.20;3.00;;;;;;;2.00;73.21;95885.02;110661;1273;22134;-78
2024/01/26 04:39:36;;;;;;;7.00;2.80;;;;;;;1.98;73.43;95886.54;110600;1273;22233;-77
2024/01/26 04:42:04;;;;;;;6.40;3.50;;;;;;;1.94;73.78;95892.19;110741;1273;22085;-77
2024/01/26 04:44:33;;;;;;;8.10;2.90;;;;;;;1.89;74.14;95890.88;110613;1273;22125;-77
2024/01/26 04:47:01;;;;;;;5.60;2.40;;;;;;;1.86;74.18;95894.11;110711;1270;22854;-79
2024/01/26 04:49:30;;;;;;;4.60;2.30;;;;;;;1.84;74.19;95894.77;110724;1273;22101;-79
2024/01/26 04:52:01;;;;;;;6.80;3.00;;;;;;;1.81;74.40;95902.34;110711;1273;22668;-78
2024/01/26 04:54:29;;;;;;;6.30;3.10;;;;;;;1.75;75.15;95902.91;110690;1273;22124;-78
2024/01/26 04:56:57;;;;;;;4.70;2.40;;;;;;;1.73;75.03;95910.16;110716;1273;22128;-78
2024/01/26 04:59:26;;;;;;;6.60;2.20;;;;;;;1.70;75.03;95910.44;110714;1273;22900;-80
2024/01/26 05:01:54;;;;;;;7.40;3.00;;;;;;;1.67;75.48;95916.44;110696;1273;22117;-80
2024/01/26 05:04:22;;;;;;;8.20;4.10;;;;;;;1.66;75.27;95917.98;110698;1273;22283;-80
2024/01/26 05:06:51;;;;;;;8.10;2.80;;;;;;;1.66;75.26;95921.98;110712;1273;22794;-80
2024/01/26 05:09:20;;;;;;;5.50;2.50;;;;;;;1.67;75.30;95923.05;110714;1273;22128;-80
2024/01/26 05:11:49;;;;;;;11.90;2.90;;;;;;;1.72;75.47;95933.71;110620;1273;22923;-80
2024/01/26 05:14:17;;;;;;;7.30;2.80;;;;;;;1.74;75.47;95935.32;110710;1273;22107;-80
2024/01/26 05:16:46;;;;;;;8.50;3.10;;;;;;;1.76;75.54;95935.20;110704;1273;22214;-80
2024/01/26 05:19:14;;;;;;;9.30;3.00;;;;;;;1.80;75.60;95938.39;110740;1273;22137;-80
2024/01/26 05:21:43;;;;;;;15.90;6.40;;;;;;;1.88;75.78;95951.04;110729;1273;22977;-80
2024/01/26 05:24:11;;;;;;;22.70;9.80;;;;;;;1.95;75.68;95947.02;110641;1273;22182;-80
2024/01/26 05:26:39;;;;;;;26.00;12.70;;;;;;;1.98;75.50;95948.11;110688;1273;22112;-80
2024/01/26 05:29:08;;;;;;;25.20;11.10;;;;;;;1.94;75.35;95949.61;110700;1273;22123;-80
2024/01/26 05:31:39;;;;;;;74.10;38.80;;;;;;;1.89;75.37;95957.13;110704;1273;22177;-80
2024/01/26 05:34:08;;;;;;;95.30;53.60;;;;;;;1.80;75.95;95954.52;110624;1273;22199;-80
2024/01/26 05:36:43;;;;;;;17.70;8.80;;;;;;;1.73;76.26;95954.02;110651;1273;23111;-80
2024/01/26 05:39:12;;;;;;;25.20;16.70;;;;;;;1.71;76.56;95954.69;110644;1272;22284;-80
2024/01/26 05:41:40;;;;;;;29.20;21.30;;;;;;;1.72;76.69;95949.34;110627;1273;22845;-80
2024/01/26 05:44:09;;;;;;;12.60;7.60;;;;;;;1.72;76.74;95954.02;110702;1273;22098;-80
2024/01/26 05:46:37;;;;;;;8.40;3.60;;;;;;;1.67;76.67;95949.73;110616;1273;22107;-80
2024/01/26 05:49:05;;;;;;;8.40;3.90;;;;;;;1.66;76.53;95952.83;110734;1273;22170;-80
2024/01/26 05:51:37;;;;;;;11.10;4.80;;;;;;;1.65;76.41;95952.30;110727;1273;23013;-80
2024/01/26 05:54:05;;;;;;;19.00;11.20;;;;;;;1.63;76.75;95948.96;110603;1273;22202;-79
2024/01/26 05:56:33;;;;;;;7.60;4.00;;;;;;;1.60;76.84;95951.83;110707;1273;22168;-79
2024/01/26 05:59:02;;;;;;;6.60;3.50;;;;;;;1.56;76.86;95952.98;110719;1273;22831;-80
2024/01/26 06:01:30;;;;;;;7.30;3.60;;;;;;;1.53;77.03;95952.91;110728;1273;22302;-81
2024/01/26 06:03:58;;;;;;;10.40;3.10;;;;;;;1.46;77.47;95955.17;110717;1273;22921;-80
2024/01/26 06:06:26;;;;;;;7.00;3.30;;;;;;;1.42;77.53;95961.34;110612;1273;22093;-80
2024/01/26 06:08:55;;;;;;;5.20;1.70;;;;;;;1.38;77.83;95961.77;110724;1273;22975;-79
2024/01/26 06:11:25;;;;;;;5.90;2.70;;;;;;;1.33;78.02;95966.50;110608;1273;22946;-81
2024/01/26 06:13:53;;;;;;;6.50;2.80;;;;;;;1.30;78.48;95975.95;110653;1273;22130;-80
2024/01/26 06:16:22;;;;;;;6.60;2.50;;;;;;;1.27;78.67;95978.48;110703;1273;22314;-83
2024/01/26 06:18:50;;;;;;;5.00;2.30;;;;;;;1.26;78.72;95986.63;110676;1273;22125;-82
2024/01/26 06:21:18;;;;;;;7.00;3.50;;;;;;;1.27;78.55;95991.30;110715;1273;22914;-82
2024/01/26 06:23:47;;;;;;;5.20;2.80;;;;;;;1.29;78.59;96002.30;110701;1273;23188;-82
2024/01/26 06:26:15;;;;;;;8.50;3.90;;;;;;;1.33;78.42;96000.13;110631;1273;23091;-80
2024/01/26 06:28:43;;;;;;;6.50;3.30;;;;;;;1.37;78.51;96006.11;110715;1273;22128;-81
2024/01/26 06:31:12;;;;;;;2.80;1.90;;;;;;;1.36;78.30;96006.77;110721;1262;22890;-81
2024/01/26 06:33:40;;;;;;;11.30;3.20;;;;;;;1.36;77.97;96009.38;110713;1273;22144;-81
2024/01/26 06:36:11;;;;;;;9.20;4.10;;;;;;;1.33;77.92;96008.44;110704;1273;22172;-80
2024/01/26 06:38:40;;;;;;;5.90;2.40;;;;;;;1.34;77.90;96009.15;110636;1273;22159;-81
2024/01/26 06:41:08;;;;;;;5.30;2.40;;;;;;;1.29;77.54;96001.77;110692;1273;22304;-85
2024/01/26 06:43:37;;;;;;;5.80;2.40;;;;;;;1.28;77.19;96010.22;110682;1273;23194;-80
2024/01/26 06:46:05;;;;;;;10.80;4.30;;;;;;;1.26;77.06;96011.59;110714;1273;22935;-81
2024/01/26 06:48:33;;;;;;;5.60;2.70;;;;;;;1.24;77.29;96019.13;110724;1273;22151;-77
2024/01/26 06:51:02;;;;;;;5.30;2.60;;;;;;;1.21;77.15;96022.36;110686;1273;22090;-81
2024/01/26 06:53:30;;;;;;;11.30;4.20;;;;;;;1.17;77.03;96021.23;110711;1273;22182;-80
2024/01/26 06:55:58;;;;;;;5.70;2.40;;;;;;;1.14;77.12;96032.60;110696;1273;22129;-81
2024/01/26 06:58:26;;;;;;;5.70;3.00;;;;;;;1.10;77.21;96036.47;110685;1273;22123;-77
2024/01/26 07:00:54;;;;;;;7.10;3.70;;;;;;;1.06;77.43;96048.51;110699;1273;22101;-79
2024/01/26 07:03:23;;;;;;;8.50;4.20;;;;;;;1.04;77.10;96049.16;110707;1273;22197;-80
2024/01/26 07:05:53;;;;;;;6.50;3.30;;;;;;;1.05;77.17;96053.52;110702;1273;22278;-80
2024/01/26 07:08:21;;;;;;;5.20;2.90;;;;;;;1.06;76.97;96055.45;110617;1273;22162;-80
2024/01/26 07:10:49;;;;;;;8.90;5.50;;;;;;;1.06;77.00;96060.65;110683;1273;22112;-81
2024/01/26 07:13:17;;;;;;;3.70;2.30;;;;;;;1.06;76.66;96060.27;110665;1273;22997;-81
2024/01/26 07:15:46;;;;;;;4.10;2.70;;;;;;;1.05;76.53;96068.74;110637;1273;22176;-81
2024/01/26 07:18:14;;;;;;;7.10;3.10;;;;;;;1.05;76.54;96068.92;110576;1267;22154;-80
2024/01/26 07:20:42;;;;;;;13.30;6.20;;;;;;;1.08;76.71;96067.45;110556;1274;22920;-80
2024/01/26 07:23:11;;;;;;;6.90;4.00;;;;;;;1.14;76.53;96067.92;110516;1273;22436;-81
2024/01/26 07:25:39;;;;;;;10.60;5.80;;;;;;;1.25;76.65;96073.59;110599;1270;22363;-80
2024/01/26 07:28:08;;;;;;;10.40;5.70;;;;;;;1.34;76.38;96075.02;110702;1273;23028;-81
2024/01/26 07:30:36;;;;;;;11.10;5.70;;;;;;;1.41;76.09;96070.86;110686;1273;22237;-80
2024/01/26 07:33:06;;;;;;;10.10;4.70;;;;;;;1.47;75.23;96076.72;110689;1273;22117;-81
2024/01/26 07:35:34;;;;;;;8.30;4.80;;;;;;;1.50;75.00;96075.06;110671;1273;22294;-81
2024/01/26 07:38:03;;;;;;;5.90;2.90;;;;;;;1.54;74.83;96083.46;110673;1273;22160;-81
2024/01/26 07:40:31;;;;;;;6.00;3.40;;;;;;;1.53;74.25;96087.08;110610;1273;22322;-80
2024/01/26 07:42:59;;;;;;;8.80;4.80;;;;;;;1.50;74.27;96090.49;110699;1273;22149;-80
2024/01/26 07:45:27;;;;;;;5.10;3.80;;;;;;;1.50;74.33;96091.73;110659;1273;22142;-79
2024/01/26 07:47:56;;;;;;;5.80;2.90;;;;;;;1.49;74.02;96095.15;110617;1273;22154;-81
2024/01/26 07:50:24;;;;;;;5.40;2.80;;;;;;;1.45;74.00;96098.02;110707;1273;22173;-80
2024/01/26 07:52:52;;;;;;;9.80;4.80;;;;;;;1.48;74.20;96108.64;110706;1273;22196;-82
2024/01/26 07:55:20;;;;;;;12.20;6.70;;;;;;;1.46;74.07;96110.52;110669;1273;22137;-79
2024/01/26 07:57:49;;;;;;;4.10;2.70;;;;;;;1.43;73.68;96111.30;110612;1273;22136;-81
2024/01/26 08:00:17;;;;;;;6.00;3.00;;;;;;;1.38;73.64;96113.77;110663;1273;22092;-82
2024/01/26 08:02:47;;;;;;;5.30;3.70;;;;;;;1.31;73.47;96112.90;110972;1263;22808;-81
2024/01/26 08:05:15;;;;;;;8.50;4.90;;;;;;;1.29;73.68;96113.20;110675;1267;22882;-80
2024/01/26 08:07:44;;;;;;;6.10;3.50;;;;;;;1.28;73.94;96108.86;110636;1273;22600;-80
2024/01/26 08:10:13;;;;;;;4.50;3.00;;;;;;;1.31;74.12;96113.60;110681;1273;22258;-79
2024/01/26 08:12:47;;;;;;;2.00;1.70;;;;;;;1.33;74.04;96119.02;110600;1273;22480;-82
2024/01/26 08:15:16;;;;;;;2.20;1.70;;;;;;;1.28;73.45;96121.50;110551;1271;22139;-81
2024/01/26 08:17:45;;;;;;;4.80;2.80;;;;;;;1.33;73.94;96126.29;110515;1259;22839;-81
2024/01/26 08:20:14;;;;;;;4.90;2.20;;;;;;;1.39;73.97;96130.44;110529;1275;22195;-79
2024/01/26 08:22:43;;;;;;;2.50;1.90;;;;;;;1.45;73.82;96127.63;110554;1275;22205;-80
2024/01/26 08:25:12;;;;;;;2.90;1.90;;;;;;;1.48;73.36;96125.45;110555;1275;22217;-81
2024/01/26 08:27:41;;;;;;;3.80;1.50;;;;;;;1.53;73.06;96118.30;110534;1275;22885;-80
2024/01/26 08:30:10;;;;;;;8.10;3.50;;;;;;;1.62;73.21;96116.45;110551;1275;22132;-81
2024/01/26 08:32:39;;;;;;;4.90;2.30;;;;;;;1.62;72.62;96116.98;110605;1275;22120;-80
2024/01/26 08:35:09;;;;;;;6.50;3.40;;;;;;;1.64;72.27;96120.48;110565;1275;22210;-82
2024/01/26 08:37:38;;;;;;;7.40;3.70;;;;;;;1.72;72.28;96125.00;110501;1275;22307;-80
2024/01/26 08:40:09;;;;;;;6.10;3.80;;;;;;;1.77;72.65;96127.90;110511;1275;22212;-79
2024/01/26 08:42:37;;;;;;;5.90;3.00;;;;;;;1.82;72.03;96124.89;110557;1275;22259;-79
2024/01/26 08:45:06;;;;;;;4.40;2.90;;;;;;;1.87;72.27;96124.68;110545;1275;22310;-83
2024/01/26 08:47:35;;;;;;;5.50;2.90;;;;;;;1.93;72.31;96127.73;110493;1275;22199;-80
2024/01/26 08:50:03;;;;;;;6.50;3.40;;;;;;;2.02;71.92;96120.66;110496;1268;22250;-77
2024/01/26 08:52:32;;;;;;;4.40;2.00;;;;;;;2.11;71.69;96123.13;110517;1275;22114;-77
2024/01/26 08:55:00;;;;;;;5.40;2.70;;;;;;;2.21;71.26;96124.40;110511;1274;22186;-77
2024/01/26 08:57:28;;;;;;;3.50;2.00;;;;;;;2.23;70.84;96129.29;110510;1274;22335;-80
2024/01/26 08:59:57;;;;;;;3.90;1.90;;;;;;;2.20;70.37;96129.92;110538;1274;22229;-79
2024/01/26 09:02:25;;;;;;;3.10;1.80;;;;;;;2.22;70.52;96130.83;110530;1274;22204;-79
2024/01/26 09:04:53;;;;;;;4.70;1.90;;;;;;;2.24;70.17;96127.07;110511;1274;22169;-79
2024/01/26 09:07:23;;;;;;;4.20;2.10;;;;;;;2.26;69.97;96133.17;110529;1274;22286;-79
2024/01/26 09:09:51;;;;;;;3.70;1.60;;;;;;;2.18;69.57;96138.73;110531;1275;22181;-80
2024/01/26 09:12:19;;;;;;;4.70;1.90;;;;;;;2.12;69.64;96136.34;110524;1274;22891;-80
2024/01/26 09:14:47;;;;;;;2.40;1.30;;;;;;;2.09;69.86;96142.00;110524;1275;22777;-80
2024/01/26 09:17:16;;;;;;;3.20;1.70;;;;;;;2.06;69.80;96140.89;110524;1274;22275;-81
2024/01/26 09:19:44;;;;;;;6.80;2.80;;;;;;;2.10;70.04;96143.61;110548;1274;23165;-79
2024/01/26 09:22:13;;;;;;;5.00;2.60;;;;;;;2.16;70.29;96143.55;110540;1274;22202;-80
2024/01/26 09:24:41;;;;;;;4.50;2.50;;;;;;;2.17;70.06;96144.95;110544;1274;22276;-80
2024/01/26 09:27:09;;;;;;;4.30;2.70;;;;;;;2.22;70.26;96145.77;110527;1274;22202;-80
2024/01/26 09:29:37;;;;;;;6.90;3.70;;;;;;;2.29;70.08;96144.90;110716;1268;22232;-81
2024/01/26 09:32:06;;;;;;;3.20;2.10;;;;;;;2.31;70.02;96143.04;110550;1275;23089;-82
2024/01/26 09:34:34;;;;;;;6.30;2.70;;;;;;;2.27;69.44;96140.84;110576;1275;22300;-81
2024/01/26 09:37:03;;;;;;;2.20;1.80;;;;;;;2.21;69.45;96142.09;110526;1275;22151;-83
2024/01/26 09:39:31;;;;;;;4.10;2.60;;;;;;;2.17;69.47;96140.10;110558;1275;22277;-80
2024/01/26 09:41:59;;;;;;;5.20;3.40;;;;;;;2.16;69.70;96138.33;110554;1275;22236;-81
2024/01/26 09:44:28;;;;;;;3.50;1.90;;;;;;;2.27;69.59;96139.45;110502;1275;22151;-82
2024/01/26 09:46:57;;;;;;;3.20;1.90;;;;;;;2.25;68.77;96135.58;110578;1275;22137;-83
2024/01/26 09:49:28;;;;;;;2.30;1.80;;;;;;;2.25;68.66;96129.36;110568;1275;22153;-81
2024/01/26 09:51:57;;;;;;;3.70;2.10;;;;;;;2.28;69.03;96129.08;110490;1275;22182;-81
2024/01/26 09:54:27;;;;;;;3.80;1.80;;;;;;;2.40;69.50;96130.02;110574;1275;22184;-82
2024/01/26 09:56:56;;;;;;;3.60;2.40;;;;;;;2.34;69.58;96129.90;110549;1275;22836;-81
2024/01/26 09:59:25;;;;;;;4.50;3.00;;;;;;;2.35;69.93;96124.20;110575;1275;22987;-81
2024/01/26 10:01:53;;;;;;;3.80;2.50;;;;;;;2.50;70.15;96116.52;110567;1275;22214;-80
2024/01/26 10:04:22;;;;;;;4.10;2.20;;;;;;;2.61;69.03;96115.16;110534;1273;22405;-81
2024/01/26 10:06:50;;;;;;;2.80;2.10;;;;;;;2.72;68.54;96106.02;110725;1269;22143;-78
2024/01/26 10:09:19;;;;;;;10.50;4.70;;;;;;;2.84;68.14;96103.46;110709;1273;22862;-80
2024/01/26 10:11:47;;;;;;;9.90;3.90;;;;;;;3.00;68.72;96097.70;110626;1273;22222;-81
2024/01/26 10:14:22;;;;;;;5.30;2.50;;;;;;;3.30;67.92;96096.84;110671;1273;22204;-81
2024/01/26 10:16:58;;;;;;;9.60;3.70;;;;;;;3.59;65.89;96096.82;110635;1273;22902;-81
2024/01/26 10:19:27;;;;;;;4.60;2.00;;;;;;;3.98;65.51;96094.83;110587;1273;22937;-81
2024/01/26 10:21:57;;;;;;;9.80;3.90;;;;;;;4.35;63.94;96089.77;110640;1273;22106;-82
2024/01/26 10:24:26;;;;;;;7.90;3.00;;;;;;;4.56;63.38;96086.39;110591;1273;22390;-83
2024/01/26 10:26:55;;;;;;;11.20;4.80;;;;;;;4.86;62.94;96086.04;110586;1273;22203;-82
2024/01/26 10:29:24;;;;;;;4.00;2.20;;;;;;;5.26;62.34;96078.96;110554;1273;22203;-80
2024/01/26 10:31:53;;;;;;;6.40;3.40;;;;;;;5.49;61.40;96081.09;110498;1274;22150;-81
2024/01/26 10:34:22;;;;;;;2.90;2.20;;;;;;;5.66;59.11;96084.91;110509;1274;22352;-82
2024/01/26 10:36:55;;;;;;;9.20;5.40;;;;;;;5.87;58.28;96078.10;110505;1274;22307;-82
2024/01/26 10:39:29;;;;;;;8.30;4.90;;;;;;;6.07;57.70;96084.02;110531;1275;22402;-81
2024/01/26 10:42:03;;;;;;;3.90;2.50;;;;;;;6.38;56.75;96082.46;110533;1274;22202;-82
2024/01/26 10:44:37;;;;;;;3.20;1.90;;;;;;;6.17;55.07;96077.61;110559;1274;22887;-81
2024/01/26 10:47:08;;;;;;;3.70;2.20;;;;;;;5.75;56.22;96082.35;110561;1274;22175;-82
2024/01/26 10:49:39;;;;;;;3.40;2.40;;;;;;;5.32;57.24;96082.33;110567;1274;22118;-83
2024/01/26 10:52:09;;;;;;;3.00;1.70;;;;;;;5.15;57.91;96088.44;110559;1271;22123;-81
2024/01/26 10:54:38;;;;;;;2.50;1.70;;;;;;;5.06;58.32;96094.12;110456;1265;147640;-82
2024/01/26 10:57:07;;;;;;;2.20;1.30;;;;;;;4.74;59.07;96094.27;110573;1274;22118;-80
2024/01/26 10:59:39;;;;;;;2.70;1.80;;;;;;;4.73;59.42;96096.52;110621;1274;22263;-81
2024/01/26 11:02:12;;;;;;;4.20;2.80;;;;;;;4.57;59.52;96095.27;110576;1274;23062;-80
2024/01/26 11:04:44;;;;;;;3.80;1.80;;;;;;;4.36;60.73;96097.96;110533;1275;22121;-81
2024/01/26 11:07:13;;;;;;;6.00;4.30;;;;;;;4.43;61.19;96098.23;110660;1275;22257;-83
2024/01/26 11:09:45;;;;;;;6.40;3.80;;;;;;;4.47;60.11;96096.36;110549;1274;22124;-83
2024/01/26 11:12:25;;;;;;;2.60;2.10;;;;;;;4.23;60.60;96094.65;110604;1275;22949;-83
2024/01/26 11:15:25;;;;;;;4.00;3.10;;;;;;;4.02;60.93;96092.61;110606;1275;22508;-83
2024/01/26 11:17:56;;;;;;;2.30;1.80;;;;;;;3.79;61.40;96095.05;110511;1275;22132;-83
2024/01/26 11:20:30;;;;;;;4.20;1.80;;;;;;;3.56;62.27;96090.85;110536;1271;22092;-82
2024/01/26 11:23:01;;;;;;;;;;;;;;;3.38;62.96;96090.20;110585;1274;22320;-82
2024/01/26 11:25:40;;;;;;;3.60;2.30;;;;;;;3.21;63.58;96091.13;110548;1275;22213;-82
2024/01/26 11:28:10;;;;;;;4.30;2.10;;;;;;;3.12;64.20;96091.30;110586;1274;22132;-81
2024/01/26 11:30:39;;;;;;;2.10;1.90;;;;;;;3.13;64.57;96082.98;110549;1274;22506;-81
2024/01/26 11:33:23;;;;;;;2.80;1.90;;;;;;;3.24;64.47;96083.17;110564;1275;22118;-80
2024/01/26 11:36:05;;;;;;;3.90;1.90;;;;;;;3.21;64.35;96081.91;110592;1274;22225;-80
2024/01/26 11:38:34;;;;;;;2.70;1.80;;;;;;;3.17;64.97;96083.23;110537;1274;22929;-80
2024/01/26 11:41:03;;;;;;;3.30;1.90;;;;;;;3.18;65.15;96081.16;110571;1274;22425;-81